Time;durP1;ratioP1;P1;durP2;ratioP2;P2;SDS_P1;SDS_P2;PMS_P1;PMS_P2;Temp;Humidity;BMP_temperature;BMP_pressure;BME280_temperature;BME280_humidity;BME280_pressure;Samples;Min_cycle;Max_cycle;Signal;HPM_P1;HPM_P2
2021/05/31 00:00:01;;;;;;;4.77;3.23;;;11.00;99.90;;;;;;20879766;28;20025;-78
2021/05/31 00:10:04;;;;;;;5.90;3.17;;;11.10;99.90;;;;;;20875697;28;20034;-78
2021/05/31 00:20:09;;;;;;;5.20;2.95;;;10.90;99.90;;;;;;20890474;28;20305;-78
2021/05/31 00:30:12;;;;;;;5.50;3.13;;;10.90;99.90;;;;;;20888457;28;20033;-77
2021/05/31 00:40:14;;;;;;;10.85;3.28;;;10.90;99.90;;;;;;20878537;28;20094;-78
2021/05/31 00:50:15;;;;;;;7.07;3.47;;;10.90;99.90;;;;;;20881937;28;20033;-78
2021/05/31 01:00:17;;;;;;;8.95;3.30;;;10.80;99.90;;;;;;20900051;28;20116;-78
2021/05/31 01:10:31;;;;;;;8.17;2.80;;;10.40;99.90;;;;;;20874327;28;20033;-79
2021/05/31 01:20:40;;;;;;;5.05;3.08;;;10.50;99.90;;;;;;20873558;28;20037;-79
2021/05/31 01:30:46;;;;;;;7.80;3.33;;;10.50;99.90;;;;;;20883416;28;20135;-79
2021/05/31 01:40:48;;;;;;;4.63;3.05;;;10.50;99.90;;;;;;20886300;28;20435;-80
2021/05/31 01:50:50;;;;;;;3.88;2.85;;;10.20;99.90;;;;;;20882959;28;20033;-78
2021/05/31 02:00:52;;;;;;;5.70;2.67;;;10.10;99.90;;;;;;20887880;28;20038;-79
2021/05/31 02:10:53;;;;;;;10.00;3.08;;;10.10;99.90;;;;;;20885152;28;20037;-78
2021/05/31 02:21:03;;;;;;;4.00;2.80;;;10.00;99.90;;;;;;20886255;28;20044;-78
2021/05/31 02:31:06;;;;;;;4.57;2.97;;;9.70;99.90;;;;;;20880954;28;20689;-79
2021/05/31 02:41:08;;;;;;;5.95;2.67;;;10.00;99.90;;;;;;20883115;28;20033;-78
2021/05/31 02:51:09;;;;;;;13.07;2.95;;;9.80;99.90;;;;;;20801421;28;20042;-77
2021/05/31 03:01:10;;;;;;;5.67;2.47;;;9.60;99.90;;;;;;20717547;28;20121;-79
2021/05/31 03:11:11;;;;;;;3.47;2.60;;;9.70;99.90;;;;;;20732510;28;20038;-80
2021/05/31 03:21:12;;;;;;;4.57;2.80;;;9.50;99.90;;;;;;20731508;28;20038;-79
2021/05/31 03:31:12;;;;;;;4.67;2.57;;;9.60;99.90;;;;;;20726612;28;20026;-77
2021/05/31 03:41:13;;;;;;;3.60;2.57;;;9.80;99.90;;;;;;20838457;28;20036;-78
2021/05/31 03:51:17;;;;;;;4.23;2.27;;;9.90;99.90;;;;;;20884599;28;20029;-79
2021/05/31 04:01:18;;;;;;;4.57;2.45;;;9.90;99.90;;;;;;20868910;28;20064;-78
2021/05/31 04:11:35;;;;;;;6.67;3.30;;;9.80;99.90;;;;;;20838866;28;20033;-78
2021/05/31 04:21:37;;;;;;;6.30;2.55;;;9.70;99.90;;;;;;20838175;28;20037;-78
2021/05/31 04:31:38;;;;;;;5.13;2.92;;;9.70;99.90;;;;;;20845437;28;20051;-78
2021/05/31 04:41:39;;;;;;;4.70;2.53;;;9.80;99.90;;;;;;20727809;28;20026;-78
2021/05/31 04:51:40;;;;;;;4.73;2.40;;;10.00;99.90;;;;;;20700823;28;20026;-78
2021/05/31 05:01:41;;;;;;;8.13;3.00;;;10.20;99.90;;;;;;20691160;28;20113;-77
2021/05/31 05:11:42;;;;;;;3.40;2.50;;;10.40;99.90;;;;;;20744008;23;20041;-80
2021/05/31 05:21:43;;;;;;;5.03;2.50;;;10.60;99.90;;;;;;20840316;28;20036;-80
2021/05/31 05:31:44;;;;;;;5.03;3.15;;;11.00;99.90;;;;;;20837798;28;20076;-80
2021/05/31 05:51:48;;;;;;;7.70;3.10;;;11.80;99.90;;;;;;20839673;28;20522;-80
2021/05/31 06:01:50;;;;;;;5.57;2.63;;;12.00;99.90;;;;;;20830043;28;20029;-80
2021/05/31 06:11:52;;;;;;;6.60;2.60;;;12.60;99.90;;;;;;20828913;28;20136;-80
2021/05/31 06:21:53;;;;;;;3.77;2.10;;;12.80;99.90;;;;;;20829587;28;20065;-80
2021/05/31 06:31:54;;;;;;;5.28;2.63;;;13.60;99.90;;;;;;20813692;28;20044;-80
2021/05/31 06:41:54;;;;;;;4.25;2.50;;;14.00;99.90;;;;;;20840422;28;20053;-82
2021/05/31 06:51:55;;;;;;;7.18;2.50;;;14.60;99.90;;;;;;20842317;28;20033;-84
2021/05/31 07:01:56;;;;;;;3.60;2.22;;;15.10;99.90;;;;;;20841745;28;20041;-83
2021/05/31 07:11:57;;;;;;;3.28;2.05;;;15.30;99.90;;;;;;20824245;28;20056;-82
2021/05/31 07:21:59;;;;;;;4.03;2.38;;;15.80;99.90;;;;;;20840351;28;20033;-83
2021/05/31 07:32:00;;;;;;;11.75;2.47;;;16.10;99.90;;;;;;20841020;28;20033;-83
2021/05/31 07:42:01;;;;;;;3.20;1.70;;;16.90;99.90;;;;;;20838541;28;20033;-82
2021/05/31 07:52:20;;;;;;;9.33;2.63;;;17.00;99.90;;;;;;20837525;28;20037;-82
2021/05/31 08:02:23;;;;;;;5.18;2.08;;;17.90;99.90;;;;;;20854693;28;20045;-81
2021/05/31 08:12:24;;;;;;;5.32;2.08;;;18.20;99.90;;;;;;20837641;28;20037;-83
2021/05/31 08:22:25;;;;;;;4.20;2.40;;;18.40;99.70;;;;;;20837050;28;20123;-83
2021/05/31 08:32:25;;;;;;;4.07;1.83;;;19.00;99.90;;;;;;20836750;28;20124;-82
2021/05/31 08:42:26;;;;;;;3.23;1.90;;;19.60;97.00;;;;;;20838647;28;20029;-81
2021/05/31 08:52:27;;;;;;;3.13;1.60;;;19.80;96.30;;;;;;20834861;28;20029;-82
2021/05/31 09:02:33;;;;;;;4.27;1.87;;;20.60;94.60;;;;;;20817259;28;20117;-82
2021/05/31 09:12:38;;;;;;;2.60;1.52;;;20.60;94.00;;;;;;20831617;28;20092;-83
2021/05/31 09:22:49;;;;;;;4.28;2.10;;;20.60;95.20;;;;;;20813998;28;20033;-81
2021/05/31 09:32:51;;;;;;;4.23;2.90;;;21.40;93.40;;;;;;20830568;28;20087;-82
2021/05/31 09:42:55;;;;;;;3.65;1.23;;;21.50;91.60;;;;;;20812971;28;20280;-83
2021/05/31 09:53:11;;;;;;;3.50;1.52;;;21.60;90.20;;;;;;20813523;28;20183;-82
2021/05/31 10:03:23;;;;;;;5.05;1.60;;;21.90;87.00;;;;;;20837482;28;20029;-83
2021/05/31 10:13:24;;;;;;;2.67;1.38;;;22.30;82.40;;;;;;20841149;28;20485;-83
2021/05/31 10:23:25;;;;;;;3.25;1.25;;;22.70;83.00;;;;;;20845210;28;20040;-83
2021/05/31 10:33:27;;;;;;;2.67;1.70;;;23.20;78.20;;;;;;20837175;28;20030;-84
2021/05/31 10:43:29;;;;;;;;;;;23.00;82.50;;;;;;20844248;28;20029;-79
2021/05/31 10:53:35;;;;;;;2.67;1.50;;;23.60;82.00;;;;;;20840899;28;19999;-80
2021/05/31 11:04:02;;;;;;;6.32;1.95;;;23.50;76.70;;;;;;20834428;28;20029;-80
2021/05/31 11:14:04;;;;;;;8.45;1.80;;;24.00;79.40;;;;;;20862440;23;20037;-77
2021/05/31 11:24:08;;;;;;;4.47;1.98;;;24.20;80.10;;;;;;20826103;28;20044;-75
2021/05/31 11:34:10;;;;;;;3.63;1.58;;;24.30;78.80;;;;;;20835458;28;20037;-75
2021/05/31 11:44:13;;;;;;;6.22;1.63;;;24.20;81.90;;;;;;20835173;28;20053;-74
2021/05/31 11:54:21;;;;;;;4.45;1.77;;;24.90;76.70;;;;;;20835668;28;20036;-75
2021/05/31 12:04:25;;;;;;;2.75;1.40;;;24.70;75.40;;;;;;20832878;28;20025;-74
2021/05/31 12:14:28;;;;;;;11.25;1.50;;;24.00;72.90;;;;;;20831354;28;20033;-75
2021/05/31 12:24:31;;;;;;;3.83;1.40;;;24.80;70.10;;;;;;20832030;28;20037;-74
2021/05/31 12:34:33;;;;;;;3.65;1.40;;;24.40;78.30;;;;;;20829374;28;20033;-75
2021/05/31 12:44:34;;;;;;;4.78;1.38;;;24.10;77.30;;;;;;20828920;28;20029;-76
2021/05/31 12:54:35;;;;;;;4.70;1.00;;;24.70;75.00;;;;;;20828151;28;20068;-76
2021/05/31 13:04:36;;;;;;;3.88;1.45;;;25.20;68.10;;;;;;20828868;28;20120;-75
2021/05/31 13:14:45;;;;;;;3.80;1.40;;;24.90;66.70;;;;;;20828373;28;20589;-74
2021/05/31 13:24:50;;;;;;;3.47;1.60;;;25.00;71.50;;;;;;20807941;28;20108;-75
2021/05/31 13:35:04;;;;;;;2.95;1.30;;;25.20;67.50;;;;;;20879582;28;20174;-75
2021/05/31 13:45:07;;;;;;;2.65;1.48;;;24.60;76.60;;;;;;20837126;28;20037;-75
2021/05/31 13:55:10;;;;;;;7.72;1.30;;;25.20;66.30;;;;;;20807323;28;20113;-73
2021/05/31 14:05:11;;;;;;;5.63;1.48;;;24.60;67.30;;;;;;20803642;28;20400;-74
2021/05/31 14:15:15;;;;;;;3.97;1.55;;;25.50;64.40;;;;;;20801327;28;20041;-75
2021/05/31 14:25:16;;;;;;;2.60;1.23;;;24.90;63.10;;;;;;20802811;28;20032;-74
2021/05/31 14:35:17;;;;;;;2.70;1.20;;;25.60;64.40;;;;;;20802965;28;20026;-75
2021/05/31 14:45:18;;;;;;;33.77;2.00;;;24.60;65.50;;;;;;20804108;28;20029;-75
2021/05/31 14:55:19;;;;;;;8.17;1.50;;;25.10;68.30;;;;;;20804363;28;20472;-75
2021/05/31 15:05:22;;;;;;;67.18;3.60;;;25.10;68.50;;;;;;20816636;28;20064;-75
2021/05/31 15:15:22;;;;;;;3.03;1.25;;;25.10;73.60;;;;;;20855231;28;20033;-75
2021/05/31 15:25:23;;;;;;;5.90;1.40;;;24.80;65.90;;;;;;20816457;28;20491;-75
2021/05/31 15:35:26;;;;;;;4.78;1.13;;;24.90;65.70;;;;;;20795486;28;20561;-74
2021/05/31 15:45:27;;;;;;;5.55;1.20;;;25.10;66.60;;;;;;20816170;28;20037;-75
2021/05/31 15:55:28;;;;;;;3.10;1.50;;;24.50;69.10;;;;;;20810148;28;20056;-75
2021/05/31 16:05:29;;;;;;;6.50;1.30;;;23.90;69.40;;;;;;20809369;28;20033;-75
2021/05/31 16:15:29;;;;;;;4.60;1.60;;;23.40;69.10;;;;;;20854291;28;20033;-76
2021/05/31 16:25:30;;;;;;;1.67;1.20;;;23.70;68.50;;;;;;20855708;28;20035;-75
2021/05/31 16:35:32;;;;;;;4.77;1.20;;;23.50;71.10;;;;;;20809535;28;20037;-76
2021/05/31 16:45:33;;;;;;;4.53;1.35;;;23.10;70.80;;;;;;20807285;28;20124;-75
2021/05/31 16:55:34;;;;;;;5.70;1.50;;;22.60;72.70;;;;;;20808776;28;20054;-75
2021/05/31 17:05:36;;;;;;;5.80;1.50;;;22.60;73.40;;;;;;20806211;28;20486;-74
2021/05/31 17:25:38;;;;;;;4.03;1.57;;;22.50;75.00;;;;;;20909067;28;20514;-77
2021/05/31 17:35:39;;;;;;;4.33;1.33;;;22.30;71.60;;;;;;20938588;28;20036;-77
2021/05/31 17:45:41;;;;;;;1.90;1.40;;;22.10;74.50;;;;;;20970949;28;20029;-76
2021/05/31 17:55:42;;;;;;;5.07;1.50;;;22.10;73.90;;;;;;20972255;28;20455;-76
2021/05/31 18:05:43;;;;;;;4.30;2.10;;;23.70;72.50;;;;;;20970784;28;20044;-76
2021/05/31 18:15:46;;;;;;;3.40;1.40;;;25.10;70.80;;;;;;20927032;28;20032;-76
2021/05/31 18:25:49;;;;;;;2.80;1.60;;;25.40;71.00;;;;;;20930634;28;20695;-75
2021/05/31 18:35:55;;;;;;;3.15;1.40;;;23.70;72.90;;;;;;20928280;28;20106;-75
2021/05/31 18:45:56;;;;;;;5.45;1.92;;;22.20;78.20;;;;;;20920661;28;20029;-75
2021/05/31 18:55:58;;;;;;;1.90;1.57;;;20.40;85.10;;;;;;20956364;28;20033;-77
2021/05/31 19:05:59;;;;;;;7.87;1.70;;;19.20;90.40;;;;;;20941448;28;20029;-75
2021/05/31 19:16:00;;;;;;;8.32;2.10;;;18.40;92.10;;;;;;20983351;28;20132;-76
2021/05/31 19:26:05;;;;;;;4.00;1.60;;;17.80;92.60;;;;;;20927178;28;20184;-77
2021/05/31 19:36:07;;;;;;;10.40;1.98;;;17.40;93.90;;;;;;20993496;28;20085;-76
2021/05/31 19:46:08;;;;;;;8.05;1.95;;;16.90;94.70;;;;;;21018596;28;20570;-76
2021/05/31 19:56:26;;;;;;;7.97;2.10;;;16.40;96.20;;;;;;20981181;28;20154;-77
2021/05/31 20:06:27;;;;;;;7.80;2.20;;;16.30;96.30;;;;;;20947957;28;20126;-77
2021/05/31 20:16:28;;;;;;;5.67;1.67;;;15.90;97.00;;;;;;20980540;28;20039;-77
2021/05/31 20:26:29;;;;;;;5.57;1.90;;;15.70;97.20;;;;;;20937640;28;20028;-77
2021/05/31 20:36:30;;;;;;;4.32;2.10;;;15.50;97.60;;;;;;20897944;28;20719;-76
2021/05/31 20:46:32;;;;;;;3.30;2.20;;;15.20;98.60;;;;;;20954252;28;20120;-77
2021/05/31 20:56:33;;;;;;;5.35;1.90;;;15.20;98.90;;;;;;20975290;28;20041;-76
2021/05/31 21:06:34;;;;;;;5.70;2.10;;;15.10;99.00;;;;;;20965133;28;20052;-76
2021/05/31 21:16:36;;;;;;;3.00;2.28;;;14.70;99.90;;;;;;20950402;28;20566;-76
2021/05/31 21:26:37;;;;;;;;;;;14.60;99.90;;;;;;20936372;28;20024;-76
2021/05/31 21:36:37;;;;;;;5.88;2.10;;;14.70;99.90;;;;;;20947811;28;19912;-76
2021/05/31 21:46:38;;;;;;;3.30;1.95;;;14.40;99.90;;;;;;20949153;28;20508;-76
2021/05/31 21:56:39;;;;;;;6.45;2.38;;;14.00;99.90;;;;;;20949110;28;20040;-76
2021/05/31 22:06:42;;;;;;;5.20;2.58;;;13.60;99.90;;;;;;20975648;28;20075;-76
2021/05/31 22:17:01;;;;;;;3.88;2.35;;;13.60;99.90;;;;;;20990425;28;20048;-76
2021/05/31 22:27:18;;;;;;;3.65;2.63;;;13.70;99.90;;;;;;20988980;28;20028;-76
2021/05/31 22:37:18;;;;;;;3.67;2.55;;;13.20;99.90;;;;;;20989920;28;20036;-76
2021/05/31 23:18:14;;;;;;;3.22;2.45;;;13.20;99.90;;;;;;20989477;28;20028;-76
2021/05/31 23:28:15;;;;;;;3.97;2.17;;;13.20;99.90;;;;;;21004060;28;20071;-76
2021/05/31 23:38:16;;;;;;;4.47;2.50;;;13.10;99.90;;;;;;21002760;28;20038;-76
2021/05/31 23:48:17;;;;;;;7.25;2.42;;;13.10;99.90;;;;;;21002221;28;20428;-75
2021/05/31 23:58:17;;;;;;;4.45;2.55;;;12.90;99.90;;;;;;21002022;28;20021;-76
